Time;durP1;ratioP1;P1;durP2;ratioP2;P2;SDS_P1;SDS_P2;PMS_P1;PMS_P2;Temp;Humidity;BMP_temperature;BMP_pressure;BME280_temperature;BME280_humidity;BME280_pressure;Samples;Min_cycle;Max_cycle;Signal;HPM_P1;HPM_P2
2022/10/19 00:04:36;;;;;;;13.40;10.20;;;;;;;12.42;80.83;100494.46;216160;1273;140746;-72
2022/10/19 00:09:43;;;;;;;17.40;10.50;;;;;;;12.35;80.92;100497.77;215914;1271;141313;-71
2022/10/19 00:14:47;;;;;;;13.20;9.80;;;;;;;12.32;80.89;100492.86;215704;1274;141145;-73
2022/10/19 00:19:54;;;;;;;11.80;10.20;;;;;;;12.29;80.55;100493.69;215622;1273;220624;-72
2022/10/19 00:24:58;;;;;;;14.00;9.80;;;;;;;12.29;81.12;100496.48;215435;1271;140504;-72
2022/10/19 00:30:03;;;;;;;15.10;9.30;;;;;;;12.32;80.93;100493.49;216057;1272;140956;-73
2022/10/19 00:35:07;;;;;;;11.60;8.80;;;;;;;12.20;80.61;100490.30;215891;1273;141230;-72
2022/10/19 00:40:12;;;;;;;12.00;9.50;;;;;;;12.12;80.68;100486.95;215508;1276;140557;-71
2022/10/19 00:45:16;;;;;;;15.00;9.70;;;;;;;12.06;80.42;100489.98;216024;1272;141211;-72
2022/10/19 00:50:20;;;;;;;13.80;9.80;;;;;;;11.99;80.34;100486.09;216056;1274;140728;-71
2022/10/19 00:55:25;;;;;;;14.60;9.60;;;;;;;11.87;80.27;100474.21;216011;1274;140844;-72
2022/10/19 01:00:29;;;;;;;15.30;10.20;;;;;;;11.74;80.22;100480.42;215920;1274;140022;-72
2022/10/19 01:05:34;;;;;;;13.30;9.60;;;;;;;11.64;80.04;100474.17;215899;1274;139981;-71
2022/10/19 01:10:50;;;;;;;13.70;10.40;;;;;;;11.52;80.07;100466.80;216023;1274;140283;-72
2022/10/19 01:16:09;;;;;;;12.60;10.10;;;;;;;11.37;80.11;100462.07;215952;1274;141366;-72
2022/10/19 01:21:31;;;;;;;11.60;9.60;;;;;;;11.33;80.18;100455.66;215954;1274;140990;-69
2022/10/19 01:26:57;;;;;;;11.70;8.10;;;;;;;11.27;80.34;100454.34;215980;1272;141736;-71
2022/10/19 01:32:09;;;;;;;17.30;10.40;;;;;;;11.22;80.64;100439.91;215969;1274;140888;-72
2022/10/19 01:37:23;;;;;;;17.30;9.80;;;;;;;11.16;80.71;100446.41;216170;1273;140159;-72
2022/10/19 01:42:37;;;;;;;19.00;10.10;;;;;;;11.15;80.73;100452.52;216030;1272;140540;-72
2022/10/19 01:48:08;;;;;;;18.80;9.30;;;;;;;11.15;80.94;100448.10;216085;1274;140724;-72
2022/10/19 01:53:16;;;;;;;15.40;11.90;;;;;;;11.19;81.38;100449.63;216001;1271;140259;-72
2022/10/19 01:58:26;;;;;;;18.80;12.20;;;;;;;11.20;81.26;100447.31;216205;1271;140745;-72
2022/10/19 02:03:33;;;;;;;22.40;11.80;;;;;;;11.21;81.32;100446.19;215782;1274;140419;-72
2022/10/19 02:08:43;;;;;;;13.20;10.50;;;;;;;11.24;81.19;100448.84;216053;1273;141212;-72
2022/10/19 02:13:55;;;;;;;18.20;12.40;;;;;;;11.20;81.33;100443.25;216355;1272;140609;-72
2022/10/19 02:19:01;;;;;;;23.10;12.80;;;;;;;11.18;81.36;100440.96;215795;1272;140542;-72
2022/10/19 02:24:07;;;;;;;20.10;11.70;;;;;;;11.18;81.37;100435.84;216102;1271;140988;-72
2022/10/19 02:29:12;;;;;;;20.50;11.30;;;;;;;11.18;81.44;100436.20;215351;1272;140998;-72
2022/10/19 02:34:17;;;;;;;16.30;12.30;;;;;;;11.16;81.22;100433.65;215942;1272;142565;-72
2022/10/19 02:39:22;;;;;;;12.10;9.90;;;;;;;11.19;81.53;100421.20;216035;1271;142151;-72
2022/10/19 02:44:36;;;;;;;18.80;13.30;;;;;;;11.18;81.45;100418.43;213934;1274;163452;-71
2022/10/19 02:49:42;;;;;;;20.60;11.10;;;;;;;11.13;81.47;100418.40;215164;1273;142307;-72
2022/10/19 02:54:47;;;;;;;21.40;13.20;;;;;;;11.09;81.48;100420.32;216148;1271;141600;-68
2022/10/19 02:59:51;;;;;;;19.90;10.70;;;;;;;11.08;81.59;100409.94;216013;1273;142397;-72
2022/10/19 03:04:55;;;;;;;16.70;9.00;;;;;;;11.12;81.54;100411.02;216120;1273;141192;-73
2022/10/19 03:09:59;;;;;;;19.40;11.20;;;;;;;11.17;81.82;100407.57;215917;1273;140606;-72
2022/10/19 03:15:04;;;;;;;16.60;10.50;;;;;;;11.19;81.70;100410.00;215862;1273;162645;-71
2022/10/19 03:20:10;;;;;;;11.80;9.30;;;;;;;11.24;81.98;100405.77;216076;1272;141976;-72
2022/10/19 03:25:14;;;;;;;18.20;11.60;;;;;;;11.21;81.60;100404.08;216010;1271;141558;-71
2022/10/19 03:30:18;;;;;;;16.10;10.40;;;;;;;11.19;81.90;100398.14;216092;1272;140955;-70
2022/10/19 03:35:23;;;;;;;21.70;12.40;;;;;;;11.21;82.15;100398.77;216051;1273;140960;-72
2022/10/19 03:40:27;;;;;;;13.80;10.40;;;;;;;11.28;82.28;100396.16;216104;1271;141565;-71
2022/10/19 03:45:31;;;;;;;15.70;12.30;;;;;;;11.33;82.21;100396.98;216197;1273;140415;-72
2022/10/19 03:50:35;;;;;;;16.50;8.90;;;;;;;11.29;82.06;100389.68;216274;1273;141612;-72
2022/10/19 03:55:39;;;;;;;16.30;9.80;;;;;;;11.25;82.04;100388.23;216245;1271;140925;-72
2022/10/19 04:00:44;;;;;;;12.10;8.80;;;;;;;11.26;82.21;100387.92;216162;1271;140854;-73
2022/10/19 04:05:47;;;;;;;13.20;10.80;;;;;;;11.26;82.18;100390.02;216177;1271;140849;-73
2022/10/19 04:10:52;;;;;;;19.30;11.50;;;;;;;11.26;82.07;100387.80;216173;1271;141197;-72
2022/10/19 04:15:56;;;;;;;15.60;11.30;;;;;;;11.28;82.11;100391.84;216081;1271;141609;-78
2022/10/19 04:21:03;;;;;;;15.80;10.70;;;;;;;11.31;82.28;100394.76;216159;1271;141652;-74
2022/10/19 04:26:08;;;;;;;18.00;10.60;;;;;;;11.30;82.30;100393.02;216119;1271;141198;-75
2022/10/19 04:31:13;;;;;;;17.70;10.20;;;;;;;11.28;82.20;100380.30;216133;1271;140473;-75
2022/10/19 04:36:16;;;;;;;15.30;10.20;;;;;;;11.28;82.09;100381.22;216038;1271;140957;-73
2022/10/19 04:41:21;;;;;;;13.90;8.50;;;;;;;11.23;82.06;100370.71;216067;1271;141671;-70
2022/10/19 04:46:25;;;;;;;16.00;9.30;;;;;;;11.14;81.80;100373.02;215943;1272;140637;-74
2022/10/19 04:51:29;;;;;;;15.20;10.80;;;;;;;11.10;82.01;100372.04;216168;1273;140755;-72
2022/10/19 04:56:33;;;;;;;20.70;11.60;;;;;;;11.06;81.95;100373.59;216119;1271;141802;-70
2022/10/19 05:01:37;;;;;;;16.00;10.20;;;;;;;11.01;82.13;100370.23;216255;1271;142057;-72
2022/10/19 05:06:44;;;;;;;19.70;9.90;;;;;;;11.03;82.16;100364.15;216038;1273;141238;-72
2022/10/19 05:11:51;;;;;;;19.30;11.60;;;;;;;11.03;82.39;100361.23;216115;1273;141460;-73
2022/10/19 05:16:59;;;;;;;17.40;11.70;;;;;;;11.07;82.33;100360.70;215964;1273;140829;-73
2022/10/19 05:22:04;;;;;;;17.00;10.90;;;;;;;11.10;82.29;100362.43;216067;1272;140906;-75
2022/10/19 05:27:08;;;;;;;19.70;11.30;;;;;;;11.10;82.36;100362.02;216138;1273;140902;-76
2022/10/19 05:32:12;;;;;;;16.10;10.10;;;;;;;11.10;82.45;100366.87;216210;1273;140660;-75
2022/10/19 05:37:16;;;;;;;19.80;11.20;;;;;;;11.11;82.41;100359.87;215826;1273;141093;-75
2022/10/19 05:42:20;;;;;;;15.90;9.50;;;;;;;11.14;82.37;100353.80;215890;1274;141639;-76
2022/10/19 05:47:24;;;;;;;16.90;9.50;;;;;;;11.16;82.12;100356.37;215647;1274;482648;-75
2022/10/19 05:52:34;;;;;;;15.60;9.60;;;;;;;11.19;82.24;100358.65;215917;1273;141254;-70
2022/10/19 05:57:38;;;;;;;15.10;8.40;;;;;;;11.15;82.08;100367.39;215795;1274;139592;-71
2022/10/19 06:02:41;;;;;;;11.20;8.40;;;;;;;11.11;82.36;100374.86;215702;1274;140338;-71
2022/10/19 06:07:45;;;;;;;11.50;7.30;;;;;;;11.12;82.20;100369.17;216085;1274;140678;-78
2022/10/19 06:12:48;;;;;;;9.90;8.40;;;;;;;11.19;82.25;100373.80;215760;1274;140585;-76
2022/10/19 06:17:53;;;;;;;24.00;9.80;;;;;;;11.18;82.07;100380.33;216172;1274;140587;-74
2022/10/19 06:22:59;;;;;;;15.60;9.40;;;;;;;11.21;82.29;100381.91;216239;1274;140439;-74
2022/10/19 06:28:04;;;;;;;13.10;7.50;;;;;;;11.28;82.23;100376.27;216112;1273;140581;-73
2022/10/19 06:33:08;;;;;;;12.40;8.90;;;;;;;11.36;81.78;100381.29;216057;1274;141143;-73
2022/10/19 06:38:13;;;;;;;12.50;7.60;;;;;;;11.40;81.95;100388.60;216386;1274;140823;-74
2022/10/19 06:43:17;;;;;;;10.50;7.70;;;;;;;11.44;81.83;100387.11;216335;1274;140564;-72
2022/10/19 06:48:23;;;;;;;14.60;6.80;;;;;;;11.45;81.63;100386.33;216549;1273;140638;-73
2022/10/19 06:53:28;;;;;;;12.00;6.30;;;;;;;11.50;81.60;100385.09;216130;1274;139910;-73
2022/10/19 06:58:39;;;;;;;7.70;6.50;;;;;;;11.65;81.78;100386.73;216171;1273;140395;-73
2022/10/19 07:03:44;;;;;;;7.20;5.30;;;;;;;11.72;81.31;100392.38;215886;1273;140879;-73
2022/10/19 07:08:48;;;;;;;12.20;6.20;;;;;;;11.70;81.17;100401.35;216128;1274;141887;-74
2022/10/19 07:13:53;;;;;;;11.40;5.70;;;;;;;11.67;81.11;100405.42;216500;1274;140574;-69
2022/10/19 07:18:59;;;;;;;10.70;5.90;;;;;;;11.71;80.95;100413.17;216350;1273;141363;-73
2022/10/19 07:24:04;;;;;;;12.00;6.00;;;;;;;11.80;81.02;100423.98;216010;1273;141222;-73
2022/10/19 07:29:08;;;;;;;12.90;5.30;;;;;;;11.88;80.91;100426.29;215952;1273;139999;-74
2022/10/19 07:34:13;;;;;;;22.20;6.40;;;;;;;11.96;80.58;100421.39;216190;1274;141344;-72
2022/10/19 07:39:17;;;;;;;7.80;5.30;;;;;;;12.18;80.55;100431.56;216147;1273;141434;-75
2022/10/19 07:44:22;;;;;;;9.10;4.40;;;;;;;12.36;80.32;100426.30;216223;1273;140074;-81
2022/10/19 07:49:28;;;;;;;4.70;4.30;;;;;;;12.67;79.91;100420.74;216351;1272;140378;-78
2022/10/19 07:54:32;;;;;;;4.80;4.20;;;;;;;13.00;79.44;100426.42;216336;1273;141190;-75
2022/10/19 07:59:37;;;;;;;4.50;4.10;;;;;;;13.33;79.29;100427.98;216417;1272;141883;-80
2022/10/19 08:04:43;;;;;;;7.10;4.40;;;;;;;13.34;78.50;100431.30;216530;1272;140157;-79
2022/10/19 08:10:08;;;;;;;5.30;3.90;;;;;;;13.20;78.00;100425.17;216338;1273;141645;-79
2022/10/19 08:15:12;;;;;;;4.40;3.70;;;;;;;13.06;77.51;100425.28;216529;1271;142024;-78
2022/10/19 08:20:16;;;;;;;4.80;3.40;;;;;;;13.03;77.78;100424.67;216129;1274;140773;-77
2022/10/19 08:25:21;;;;;;;4.00;3.50;;;;;;;13.15;77.74;100422.86;216586;1272;140884;-75
2022/10/19 08:30:25;;;;;;;7.80;4.50;;;;;;;13.34;77.68;100426.65;216187;1271;153193;-76
2022/10/19 08:35:30;;;;;;;15.50;3.80;;;;;;;13.44;77.24;100423.88;216330;1272;141048;-79
2022/10/19 08:40:34;;;;;;;5.40;3.70;;;;;;;13.38;76.64;100423.89;216206;1272;222517;-77
2022/10/19 08:45:38;;;;;;;5.30;3.10;;;;;;;13.25;76.33;100430.10;215811;1274;140459;-79
2022/10/19 08:50:46;;;;;;;5.60;3.10;;;;;;;13.13;76.17;100438.45;216391;1273;141169;-78
2022/10/19 08:56:26;;;;;;;13.00;3.80;;;;;;;13.11;76.28;100432.98;216284;1274;140371;-79
2022/10/19 09:02:09;;;;;;;9.20;2.70;;;;;;;13.22;76.11;100433.34;216341;1274;140429;-78
2022/10/19 09:07:30;;;;;;;4.30;2.80;;;;;;;13.21;75.88;100439.20;216068;1273;141971;-68
2022/10/19 09:12:47;;;;;;;4.30;2.20;;;;;;;13.01;75.85;100440.77;216140;1273;140971;-74
2022/10/19 09:17:55;;;;;;;1.90;1.60;;;;;;;12.84;76.38;100447.04;216110;1273;139773;-72
2022/10/19 09:23:09;;;;;;;2.60;1.90;;;;;;;12.67;76.05;100451.08;216102;1273;140019;-73
2022/10/19 09:28:40;;;;;;;2.40;1.90;;;;;;;12.55;76.49;100459.29;216290;1273;141591;-73
2022/10/19 09:33:54;;;;;;;2.60;2.40;;;;;;;12.61;77.08;100463.31;216179;1273;140503;-73
2022/10/19 09:38:59;;;;;;;5.50;3.40;;;;;;;12.61;76.87;100465.52;216359;1272;141256;-79
2022/10/19 09:44:04;;;;;;;3.50;2.30;;;;;;;12.46;76.90;100464.63;216160;1271;140431;-72
2022/10/19 09:49:09;;;;;;;4.00;2.40;;;;;;;12.33;76.84;100472.09;216047;1273;140079;-73
2022/10/19 09:54:32;;;;;;;5.80;2.60;;;;;;;12.26;76.95;100471.73;216049;1273;140765;-77
2022/10/19 09:59:37;;;;;;;2.60;2.00;;;;;;;12.37;77.48;100469.56;216124;1273;141136;-75
2022/10/19 10:04:46;;;;;;;3.00;2.70;;;;;;;12.46;77.55;100478.11;216331;1272;141260;-72
2022/10/19 10:09:52;;;;;;;2.80;2.60;;;;;;;12.56;77.75;100478.70;216118;1272;140239;-71
2022/10/19 10:14:56;;;;;;;2.50;1.90;;;;;;;12.75;77.62;100480.37;216288;1274;140979;-71
2022/10/19 10:20:04;;;;;;;4.00;3.00;;;;;;;13.01;77.80;100487.84;216249;1273;140764;-72
2022/10/19 10:25:17;;;;;;;4.80;3.20;;;;;;;13.19;77.28;100484.04;215909;1272;140129;-72
2022/10/19 10:30:22;;;;;;;6.50;2.90;;;;;;;13.29;77.55;100487.70;216005;1273;140804;-73
2022/10/19 10:35:36;;;;;;;6.00;2.20;;;;;;;13.38;76.94;100485.77;216161;1273;141710;-71
2022/10/19 10:40:48;;;;;;;10.50;2.70;;;;;;;13.52;76.70;100490.23;216059;1271;140276;-71
2022/10/19 10:45:53;;;;;;;3.70;2.10;;;;;;;13.50;76.76;100487.02;216271;1273;141702;-71
2022/10/19 10:50:59;;;;;;;4.40;3.40;;;;;;;13.44;76.20;100480.95;216281;1272;140966;-72
2022/10/19 10:56:18;;;;;;;10.40;3.70;;;;;;;13.34;76.59;100480.52;216570;1273;140191;-71
2022/10/19 11:01:26;;;;;;;2.50;2.20;;;;;;;13.21;76.40;100477.16;216605;1271;141308;-72
2022/10/19 11:06:33;;;;;;;3.70;1.70;;;;;;;13.12;76.42;100481.14;215822;1274;142923;-71
2022/10/19 11:11:41;;;;;;;2.00;1.90;;;;;;;13.14;76.72;100481.85;216056;1273;141032;-77
2022/10/19 11:16:49;;;;;;;3.50;1.60;;;;;;;13.14;76.77;100486.92;216294;1273;141263;-73
2022/10/19 11:22:16;;;;;;;2.90;1.70;;;;;;;13.28;76.72;100480.27;216381;1273;141268;-77
2022/10/19 11:27:47;;;;;;;3.00;1.70;;;;;;;13.32;76.63;100481.55;216216;1274;141829;-75
2022/10/19 11:33:03;;;;;;;1.10;1.00;;;;;;;13.33;76.73;100492.29;216071;1272;143980;-77
2022/10/19 11:38:23;;;;;;;2.00;1.50;;;;;;;13.23;76.57;100490.23;216170;1274;153517;-79
2022/10/19 11:43:40;;;;;;;3.30;1.40;;;;;;;13.10;76.46;100494.80;216548;1271;141359;-76
2022/10/19 11:49:10;;;;;;;4.80;1.30;;;;;;;13.03;76.30;100490.08;216153;1272;141350;-77
2022/10/19 11:54:41;;;;;;;1.30;1.20;;;;;;;12.92;76.22;100488.20;216123;1272;141939;-70
2022/10/19 12:00:11;;;;;;;1.30;0.90;;;;;;;12.92;76.34;100491.08;216112;1272;140697;-75
2022/10/19 12:06:03;;;;;;;1.60;0.50;;;;;;;12.99;76.18;100490.09;214228;1272;140495;-75
2022/10/19 12:11:35;;;;;;;1.50;0.70;;;;;;;13.06;76.34;100494.77;215787;1274;140836;-74
2022/10/19 12:16:49;;;;;;;0.60;0.60;;;;;;;13.06;76.12;100488.08;216080;1273;140439;-73
2022/10/19 12:21:57;;;;;;;0.60;0.60;;;;;;;13.41;76.04;100485.82;216118;1271;140877;-73
2022/10/19 12:27:04;;;;;;;2.90;1.20;;;;;;;13.63;75.84;100482.39;215902;1273;140166;-73
2022/10/19 12:32:14;;;;;;;1.10;1.10;;;;;;;13.77;75.29;100477.69;215752;1274;143067;-72
2022/10/19 12:37:24;;;;;;;1.20;1.10;;;;;;;13.95;75.03;100475.84;216089;1273;141351;-72
2022/10/19 12:42:36;;;;;;;2.70;1.30;;;;;;;14.09;74.55;100470.20;216054;1272;141174;-72
2022/10/19 12:48:11;;;;;;;1.10;0.70;;;;;;;14.23;74.15;100470.73;216190;1272;140937;-71
2022/10/19 12:53:23;;;;;;;3.10;1.50;;;;;;;14.07;73.61;100469.84;215821;1272;145915;-71
2022/10/19 12:58:36;;;;;;;3.20;1.80;;;;;;;13.96;73.42;100467.45;216081;1271;141146;-79
2022/10/19 13:03:43;;;;;;;3.70;1.50;;;;;;;13.94;73.37;100475.33;215873;1271;140745;-72
2022/10/19 13:09:02;;;;;;;2.80;1.40;;;;;;;14.15;73.10;100475.52;215956;1272;141846;-73
2022/10/19 13:14:18;;;;;;;2.70;2.00;;;;;;;14.33;72.92;100479.30;216125;1272;142360;-75
2022/10/19 13:19:23;;;;;;;2.40;1.30;;;;;;;14.45;72.84;100482.84;216209;1274;141941;-77
2022/10/19 13:24:31;;;;;;;2.10;1.10;;;;;;;14.67;72.56;100495.23;215627;1274;141155;-76
2022/10/19 13:29:40;;;;;;;3.00;1.10;;;;;;;14.79;71.43;100497.54;216103;1271;140763;-73
2022/10/19 13:34:45;;;;;;;0.60;0.60;;;;;;;14.45;70.61;100506.48;215887;1271;140510;-77
2022/10/19 13:39:50;;;;;;;1.10;0.70;;;;;;;14.01;70.01;100512.41;215679;1272;140577;-76
2022/10/19 13:44:54;;;;;;;0.90;0.80;;;;;;;13.58;69.90;100517.58;216264;1272;140031;-76
2022/10/19 13:50:16;;;;;;;1.50;0.80;;;;;;;13.26;70.29;100524.20;216255;1272;141688;-75
2022/10/19 13:55:26;;;;;;;2.00;0.80;;;;;;;13.02;70.54;100531.85;215935;1273;140971;-70
2022/10/19 14:00:56;;;;;;;3.50;1.20;;;;;;;12.80;70.57;100531.86;216314;1272;140574;-73
2022/10/19 14:06:26;;;;;;;2.80;0.70;;;;;;;12.74;70.83;100536.37;216013;1273;141399;-72
2022/10/19 14:11:35;;;;;;;1.00;0.80;;;;;;;12.67;70.56;100527.41;215963;1271;140686;-72
2022/10/19 14:16:48;;;;;;;1.40;1.30;;;;;;;12.68;70.39;100532.45;215999;1271;140827;-71
2022/10/19 14:22:32;;;;;;;0.90;0.90;;;;;;;12.76;70.11;100532.17;216232;1271;141954;-73
2022/10/19 14:27:35;;;;;;;4.90;1.60;;;;;;;12.64;69.83;100530.38;216120;1271;140955;-74
2022/10/19 14:32:39;;;;;;;4.30;1.80;;;;;;;12.54;69.97;100535.15;216019;1271;140016;-78
2022/10/19 14:37:48;;;;;;;2.80;1.50;;;;;;;12.46;69.70;100536.66;216062;1271;140205;-73
2022/10/19 14:42:51;;;;;;;1.40;1.00;;;;;;;12.47;69.82;100540.02;216214;1271;140649;-79
2022/10/19 14:48:02;;;;;;;1.70;1.60;;;;;;;12.42;70.18;100538.02;215984;1273;139623;-76
2022/10/19 14:53:08;;;;;;;2.50;2.00;;;;;;;12.45;69.83;100541.45;216186;1271;140778;-77
2022/10/19 14:58:16;;;;;;;3.30;1.90;;;;;;;12.43;69.86;100545.13;215966;1273;140827;-75
2022/10/19 15:03:25;;;;;;;2.70;1.70;;;;;;;12.29;69.75;100552.72;216085;1273;140986;-76
2022/10/19 15:08:36;;;;;;;4.70;1.10;;;;;;;12.11;69.97;100551.27;215805;1274;141415;-77
2022/10/19 15:13:41;;;;;;;3.30;1.70;;;;;;;12.02;70.38;100555.48;216183;1273;140814;-73
2022/10/19 15:18:46;;;;;;;4.60;4.20;;;;;;;11.97;70.48;100570.55;215811;1272;140917;-74
2022/10/19 15:23:53;;;;;;;3.30;2.10;;;;;;;11.89;70.17;100570.61;216033;1273;140563;-73
2022/10/19 15:29:08;;;;;;;1.90;1.60;;;;;;;11.75;69.66;100574.64;216201;1271;139912;-74
2022/10/19 15:34:24;;;;;;;1.60;1.20;;;;;;;11.62;69.82;100576.20;215812;1271;139993;-76
2022/10/19 15:39:33;;;;;;;4.10;1.10;;;;;;;11.46;69.56;100579.19;215718;1273;141087;-74
2022/10/19 15:44:46;;;;;;;1.50;1.40;;;;;;;11.28;69.47;100586.30;215997;1271;140578;-76
2022/10/19 15:50:01;;;;;;;1.30;1.20;;;;;;;11.15;69.65;100585.66;216234;1271;141064;-73
2022/10/19 15:55:05;;;;;;;1.80;1.20;;;;;;;10.99;69.61;100595.35;216171;1271;140878;-69
2022/10/19 16:00:15;;;;;;;2.90;1.50;;;;;;;10.85;69.73;100600.25;216409;1271;140576;-75
2022/10/19 16:05:20;;;;;;;1.50;1.40;;;;;;;10.71;69.65;100607.69;216206;1272;139962;-74
2022/10/19 16:10:26;;;;;;;2.60;1.40;;;;;;;10.57;69.57;100615.92;215839;1271;139994;-75
2022/10/19 16:15:29;;;;;;;5.90;3.90;;;;;;;10.45;69.67;100631.44;215962;1272;140690;-76
2022/10/19 16:20:36;;;;;;;34.80;15.10;;;;;;;10.35;69.64;100640.77;216180;1271;140288;-71
2022/10/19 16:25:40;;;;;;;9.30;5.20;;;;;;;10.27;69.59;100651.85;216054;1271;142579;-72
2022/10/19 16:30:50;;;;;;;28.70;17.90;;;;;;;10.18;69.91;100660.02;216301;1272;161349;-70
2022/10/19 16:35:53;;;;;;;16.80;11.60;;;;;;;10.04;69.84;100668.60;215824;1273;140655;-75
2022/10/19 16:41:08;;;;;;;5.90;4.20;;;;;;;9.86;69.82;100676.83;215982;1273;140418;-73
2022/10/19 16:46:11;;;;;;;2.50;1.90;;;;;;;9.66;69.73;100684.06;215870;1273;141165;-74
2022/10/19 16:51:32;;;;;;;3.10;2.20;;;;;;;9.57;69.87;100682.21;215980;1273;141431;-74
2022/10/19 16:56:43;;;;;;;3.70;1.70;;;;;;;9.52;69.99;100690.52;216131;1273;140137;-79
2022/10/19 17:01:47;;;;;;;2.80;1.70;;;;;;;9.43;69.71;100691.85;215966;1273;140648;-82
2022/10/19 17:06:51;;;;;;;2.20;1.70;;;;;;;9.33;69.62;100698.42;216119;1273;139496;-75
2022/10/19 17:11:57;;;;;;;2.40;1.80;;;;;;;9.26;69.82;100710.02;216020;1273;141520;-77
2022/10/19 17:17:02;;;;;;;3.50;1.90;;;;;;;9.16;69.47;100711.45;215859;1273;140375;-79
2022/10/19 17:22:06;;;;;;;3.30;2.10;;;;;;;9.07;69.50;100718.59;215903;1274;141946;-79
2022/10/19 17:27:10;;;;;;;3.30;2.70;;;;;;;8.99;69.46;100721.19;215903;1273;142886;-72
2022/10/19 17:32:15;;;;;;;2.60;2.40;;;;;;;8.89;69.60;100728.84;216148;1273;140720;-72
2022/10/19 17:37:28;;;;;;;6.50;1.60;;;;;;;8.81;69.89;100739.02;216020;1274;140321;-75
2022/10/19 17:42:35;;;;;;;7.60;2.70;;;;;;;8.72;69.46;100740.59;216319;1272;139817;-78
2022/10/19 17:47:39;;;;;;;3.50;2.90;;;;;;;8.62;69.73;100745.08;215966;1273;243270;-79
2022/10/19 17:52:45;;;;;;;8.00;3.30;;;;;;;8.55;69.79;100749.35;215903;1275;142402;-72
2022/10/19 17:57:52;;;;;;;4.00;2.00;;;;;;;8.49;69.84;100749.24;215927;1274;140724;-71
2022/10/19 18:02:56;;;;;;;8.30;2.20;;;;;;;8.43;70.37;100755.55;216096;1274;141268;-71
2022/10/19 18:08:00;;;;;;;3.00;1.70;;;;;;;8.31;70.14;100761.47;215952;1274;139995;-73
2022/10/19 18:13:08;;;;;;;14.20;5.80;;;;;;;8.16;70.12;100765.94;215956;1274;141640;-71
2022/10/19 18:18:11;;;;;;;12.80;3.50;;;;;;;8.00;69.95;100771.98;216182;1274;141913;-71
2022/10/19 18:23:19;;;;;;;4.30;2.50;;;;;;;7.82;69.89;100778.11;216110;1274;142607;-70
2022/10/19 18:28:23;;;;;;;9.30;3.80;;;;;;;7.63;70.17;100781.74;216267;1274;142468;-73
2022/10/19 18:33:28;;;;;;;18.40;5.70;;;;;;;7.42;70.51;100784.42;216223;1274;140830;-72
2022/10/19 18:38:37;;;;;;;4.20;3.70;;;;;;;7.24;70.69;100791.44;215989;1272;141716;-72
2022/10/19 18:43:53;;;;;;;17.60;8.80;;;;;;;7.07;70.34;100798.20;216031;1273;141495;-71
2022/10/19 18:48:59;;;;;;;5.40;3.20;;;;;;;6.88;70.77;100802.91;215858;1274;139950;-75
2022/10/19 18:54:04;;;;;;;3.80;2.60;;;;;;;6.76;70.82;100805.80;215867;1273;142320;-71
2022/10/19 18:59:08;;;;;;;4.60;3.20;;;;;;;6.60;71.18;100821.69;215927;1273;140381;-73
2022/10/19 19:04:11;;;;;;;12.40;4.80;;;;;;;6.42;71.30;100820.08;215855;1274;141062;-71
2022/10/19 19:09:16;;;;;;;4.70;3.60;;;;;;;6.28;71.86;100825.65;216064;1274;141250;-71
2022/10/19 19:14:22;;;;;;;6.00;3.60;;;;;;;6.19;71.52;100832.52;216180;1274;142117;-72
2022/10/19 19:19:28;;;;;;;5.70;4.00;;;;;;;6.05;71.33;100836.49;215880;1273;141690;-70
2022/10/19 19:24:31;;;;;;;7.40;4.30;;;;;;;5.88;71.70;100840.71;216170;1273;141183;-69
2022/10/19 19:29:35;;;;;;;5.80;3.00;;;;;;;5.72;71.67;100846.98;216096;1274;141625;-69
2022/10/19 19:34:39;;;;;;;4.90;3.20;;;;;;;5.57;72.18;100852.58;216219;1274;150467;-73
2022/10/19 19:39:43;;;;;;;13.20;6.40;;;;;;;5.51;72.38;100858.04;216332;1273;140771;-68
2022/10/19 19:44:48;;;;;;;20.90;10.30;;;;;;;5.50;72.96;100857.33;216279;1273;141352;-72
2022/10/19 19:49:52;;;;;;;23.50;10.10;;;;;;;5.44;73.04;100854.05;215901;1273;226379;-69
2022/10/19 19:54:56;;;;;;;19.00;9.10;;;;;;;5.43;73.52;100858.66;216152;1271;140451;-72
2022/10/19 20:00:01;;;;;;;16.30;8.40;;;;;;;5.29;72.91;100867.04;216328;1271;141244;-69
2022/10/19 20:05:05;;;;;;;12.50;7.30;;;;;;;5.07;72.76;100870.29;216220;1272;142095;-74
2022/10/19 20:10:10;;;;;;;16.10;8.30;;;;;;;4.89;72.77;100873.91;216222;1273;141949;-72
2022/10/19 20:15:16;;;;;;;6.60;4.00;;;;;;;4.76;72.97;100880.06;216349;1272;142638;-70
2022/10/19 20:20:21;;;;;;;8.40;4.30;;;;;;;4.56;72.98;100879.35;216163;1273;141346;-68
2022/10/19 20:25:25;;;;;;;10.80;4.80;;;;;;;4.35;73.04;100889.11;216141;1274;141740;-70
2022/10/19 20:30:29;;;;;;;18.80;5.20;;;;;;;4.26;73.63;100887.50;216117;1272;141838;-69
2022/10/19 20:35:36;;;;;;;7.20;4.70;;;;;;;4.23;73.62;100892.89;216024;1273;141927;-68
2022/10/19 20:40:40;;;;;;;9.00;5.00;;;;;;;4.13;73.19;100897.52;216045;1273;141908;-69
2022/10/19 20:45:45;;;;;;;8.50;4.90;;;;;;;3.90;73.08;100897.67;215801;1274;140778;-69
2022/10/19 20:50:49;;;;;;;9.90;5.30;;;;;;;3.68;73.52;100903.86;216027;1273;150280;-67
2022/10/19 20:55:53;;;;;;;9.20;5.60;;;;;;;3.67;74.22;100910.71;216346;1273;141772;-66
2022/10/19 21:01:03;;;;;;;11.50;7.50;;;;;;;3.65;74.33;100906.98;216365;1273;140072;-69
2022/10/19 21:06:07;;;;;;;5.90;5.40;;;;;;;3.59;74.05;100912.29;216051;1272;140637;-73
2022/10/19 21:11:19;;;;;;;7.80;3.90;;;;;;;3.54;73.91;100915.96;216091;1273;140938;-71
2022/10/19 21:16:29;;;;;;;11.10;5.70;;;;;;;3.39;73.92;100910.43;216219;1273;141958;-72
2022/10/19 21:21:35;;;;;;;7.10;4.60;;;;;;;3.31;74.38;100912.73;216063;1273;141488;-72
2022/10/19 21:26:38;;;;;;;10.80;5.40;;;;;;;3.23;74.17;100908.16;216154;1273;139245;-72
2022/10/19 21:31:45;;;;;;;4.30;3.60;;;;;;;3.10;74.09;100909.32;216065;1272;141288;-71
2022/10/19 21:36:52;;;;;;;13.70;5.10;;;;;;;2.99;74.33;100915.81;216353;1274;141555;-71
2022/10/19 21:41:55;;;;;;;5.10;3.60;;;;;;;2.92;74.52;100914.14;216271;1273;141939;-70
2022/10/19 21:46:59;;;;;;;6.20;4.20;;;;;;;2.91;74.51;100918.48;216077;1273;140146;-68
2022/10/19 21:52:03;;;;;;;5.60;3.50;;;;;;;2.86;74.64;100914.86;216148;1272;139596;-70
2022/10/19 21:57:07;;;;;;;8.00;4.90;;;;;;;2.72;74.55;100912.62;216176;1273;140364;-68
2022/10/19 22:02:10;;;;;;;8.70;4.90;;;;;;;2.59;74.58;100917.80;216179;1273;140951;-71
2022/10/19 22:07:16;;;;;;;5.20;4.10;;;;;;;2.54;75.08;100923.45;216191;1273;140434;-71
2022/10/19 22:12:24;;;;;;;9.30;5.50;;;;;;;2.55;74.99;100927.02;216366;1272;139461;-72
2022/10/19 22:17:28;;;;;;;9.30;6.20;;;;;;;2.50;75.02;100925.12;215988;1272;139304;-71
2022/10/19 22:22:32;;;;;;;9.60;4.10;;;;;;;2.33;74.66;100929.77;216228;1273;139552;-69
2022/10/19 22:27:37;;;;;;;9.30;5.80;;;;;;;2.26;75.28;100933.81;215863;1274;139906;-67
2022/10/19 22:32:40;;;;;;;5.70;4.30;;;;;;;2.22;75.22;100931.71;216124;1274;140192;-69
2022/10/19 22:37:43;;;;;;;11.50;6.40;;;;;;;2.18;75.53;100942.98;212841;1274;142011;-70
2022/10/19 22:42:47;;;;;;;10.70;6.10;;;;;;;2.07;75.62;100946.73;215543;1274;139832;-69
2022/10/19 22:47:52;;;;;;;9.40;7.40;;;;;;;1.94;75.65;100945.41;216028;1273;139774;-68
2022/10/19 22:52:57;;;;;;;14.60;7.70;;;;;;;1.88;75.88;100943.32;216067;1272;140952;-72
2022/10/19 22:58:01;;;;;;;8.70;6.10;;;;;;;1.86;75.65;100942.12;216143;1273;140263;-71
2022/10/19 23:03:05;;;;;;;9.90;7.20;;;;;;;1.85;76.12;100945.23;215737;1273;140215;-75
2022/10/19 23:08:08;;;;;;;10.40;6.80;;;;;;;1.84;75.90;100951.04;216556;1273;139986;-73
2022/10/19 23:13:13;;;;;;;13.50;8.40;;;;;;;1.83;75.94;100951.02;216283;1272;140798;-72
2022/10/19 23:18:18;;;;;;;14.10;8.20;;;;;;;1.81;75.98;100955.10;216434;1273;139787;-72